createdAt,value
2023-05-05T00:00:23.156Z,4.77
2023-05-05T00:02:49.585Z,4.30
2023-05-05T00:05:16.192Z,5.30
2023-05-05T00:07:42.799Z,5.15
2023-05-05T00:10:09.849Z,5.00
2023-05-05T00:12:38.363Z,5.03
2023-05-05T00:15:05.265Z,4.97
2023-05-05T00:17:31.618Z,5.25
2023-05-05T00:19:59.576Z,5.28
2023-05-05T00:22:26.050Z,4.85
2023-05-05T00:24:53.440Z,4.80
2023-05-05T00:27:19.895Z,5.07
2023-05-05T00:29:46.672Z,5.28
2023-05-05T00:32:13.660Z,5.65
2023-05-05T00:34:40.069Z,4.93
2023-05-05T00:37:06.401Z,5.30
2023-05-05T00:39:33.179Z,4.82
2023-05-05T00:41:59.569Z,5.50
2023-05-05T00:44:42.185Z,5.93
2023-05-05T00:47:14.121Z,5.03
2023-05-05T00:49:40.693Z,4.80
2023-05-05T00:52:07.911Z,4.57
2023-05-05T00:54:40.659Z,4.75
2023-05-05T00:57:07.745Z,4.85
2023-05-05T00:59:34.967Z,5.13
2023-05-05T01:02:02.753Z,5.13
2023-05-05T01:04:29.138Z,5.38
2023-05-05T01:07:07.821Z,5.00
2023-05-05T01:09:40.091Z,4.93
2023-05-05T01:12:24.716Z,4.97
2023-05-05T01:15:04.756Z,5.30
2023-05-05T01:17:39.626Z,4.80
2023-05-05T01:20:23.624Z,5.70
2023-05-05T01:22:59.655Z,5.43
2023-05-05T01:25:44.712Z,6.10
2023-05-05T01:28:42.056Z,5.73
2023-05-05T01:31:46.295Z,5.68
2023-05-05T01:34:16.526Z,5.78
2023-05-05T01:36:47.052Z,5.55
2023-05-05T01:39:16.456Z,6.00
2023-05-05T01:41:46.972Z,5.63
2023-05-05T01:44:16.695Z,7.00
2023-05-05T01:46:43.043Z,6.40
2023-05-05T01:49:11.473Z,6.00
2023-05-05T01:51:39.710Z,6.43
2023-05-05T01:54:08.377Z,7.43
2023-05-05T01:56:38.767Z,6.38
2023-05-05T01:59:10.642Z,6.68
2023-05-05T02:01:41.418Z,6.72
2023-05-05T02:04:09.784Z,6.68
2023-05-05T02:06:38.186Z,5.80
2023-05-05T02:09:05.773Z,5.65
2023-05-05T02:11:35.925Z,5.82
2023-05-05T02:14:07.928Z,5.07
2023-05-05T02:16:37.349Z,4.35
2023-05-05T02:19:05.057Z,5.00
2023-05-05T02:21:33.606Z,4.75
2023-05-05T02:24:00.726Z,4.68
2023-05-05T02:26:30.631Z,4.70
2023-05-05T02:29:03.894Z,4.38
2023-05-05T02:31:33.037Z,4.10
2023-05-05T02:34:02.039Z,4.40
2023-05-05T02:36:32.553Z,4.35
2023-05-05T02:39:04.844Z,3.90
2023-05-05T02:41:34.608Z,4.53
2023-05-05T02:44:05.518Z,4.27
2023-05-05T02:46:32.482Z,3.97
2023-05-05T02:48:59.684Z,4.30
2023-05-05T02:51:26.155Z,4.38
2023-05-05T02:53:52.542Z,4.20
2023-05-05T02:56:42.796Z,3.23
2023-05-05T02:59:24.509Z,3.45
2023-05-05T03:02:15.676Z,3.08
2023-05-05T03:04:50.511Z,3.00
2023-05-05T03:07:31.064Z,3.90
2023-05-05T03:10:09.510Z,3.87
2023-05-05T03:12:40.678Z,3.95
2023-05-05T03:15:13.067Z,4.13
2023-05-05T03:17:41.546Z,4.05
2023-05-05T03:20:09.670Z,4.07
2023-05-05T03:22:37.808Z,4.30
2023-05-05T03:25:04.992Z,3.35
2023-05-05T03:27:31.624Z,4.07
2023-05-05T03:29:57.962Z,3.67
2023-05-05T03:32:24.418Z,3.95
2023-05-05T03:34:51.670Z,3.73
2023-05-05T03:37:18.007Z,3.42
2023-05-05T03:39:44.536Z,3.40
2023-05-05T03:42:10.896Z,4.00
2023-05-05T03:44:37.271Z,4.15
2023-05-05T03:47:03.690Z,3.90
2023-05-05T03:49:30.195Z,3.65
2023-05-05T03:51:56.527Z,3.97
2023-05-05T03:54:22.871Z,4.18
2023-05-05T03:56:49.184Z,4.78
2023-05-05T03:59:15.902Z,4.93
2023-05-05T04:01:42.234Z,4.55
2023-05-05T04:04:09.663Z,4.90
2023-05-05T04:06:36.076Z,5.10
2023-05-05T04:09:03.230Z,4.90
2023-05-05T04:11:30.124Z,4.57
2023-05-05T04:13:56.596Z,4.55
2023-05-05T04:16:23.117Z,4.72
2023-05-05T04:18:49.572Z,5.57
2023-05-05T04:21:16.041Z,5.28
2023-05-05T04:23:42.428Z,4.20
2023-05-05T04:26:08.770Z,4.78
2023-05-05T04:28:35.192Z,4.80
2023-05-05T04:31:02.533Z,4.45
2023-05-05T04:33:28.894Z,4.20
2023-05-05T04:35:55.260Z,3.90
2023-05-05T04:38:21.828Z,4.32
2023-05-05T04:40:52.695Z,4.43
2023-05-05T04:43:19.799Z,3.85
2023-05-05T04:45:53.690Z,3.95
2023-05-05T04:48:20.771Z,4.23
2023-05-05T04:50:51.886Z,4.50
2023-05-05T04:53:18.882Z,3.97
2023-05-05T04:55:45.264Z,3.85
2023-05-05T04:58:11.625Z,4.50
2023-05-05T05:00:38.048Z,3.67
2023-05-05T05:03:04.580Z,4.03
2023-05-05T05:05:32.955Z,3.55
2023-05-05T05:07:59.630Z,3.65
2023-05-05T05:10:26.024Z,3.92
2023-05-05T05:12:52.652Z,4.00
2023-05-05T05:15:19.364Z,4.15
2023-05-05T05:17:45.748Z,5.28
2023-05-05T05:20:12.202Z,4.60
2023-05-05T05:22:38.965Z,4.60
2023-05-05T05:25:05.795Z,4.17
2023-05-05T05:27:32.165Z,4.57
2023-05-05T05:29:58.517Z,5.43
2023-05-05T05:32:24.834Z,5.35
2023-05-05T05:34:51.244Z,5.13
2023-05-05T05:37:17.620Z,5.23
2023-05-05T05:39:43.980Z,5.90
2023-05-05T05:42:10.318Z,5.80
2023-05-05T05:44:36.753Z,6.25
2023-05-05T05:47:03.980Z,5.78
2023-05-05T05:49:30.376Z,6.00
2023-05-05T05:51:56.708Z,6.13
2023-05-05T05:54:23.031Z,5.63
2023-05-05T05:56:49.359Z,6.38
2023-05-05T05:59:15.817Z,6.63
2023-05-05T06:01:42.144Z,6.27
2023-05-05T06:04:08.588Z,6.68
2023-05-05T06:06:36.264Z,6.97
2023-05-05T06:09:02.730Z,6.68
2023-05-05T06:11:29.207Z,6.95
2023-05-05T06:13:55.773Z,7.60
2023-05-05T06:16:22.101Z,7.45
2023-05-05T06:18:48.525Z,8.05
2023-05-05T06:21:14.949Z,7.15
2023-05-05T06:23:42.055Z,7.22
2023-05-05T06:26:08.395Z,6.30
2023-05-05T06:28:34.834Z,6.00
2023-05-05T06:31:01.235Z,6.35
2023-05-05T06:33:27.668Z,6.00
2023-05-05T06:35:54.284Z,5.40
2023-05-05T06:38:20.693Z,4.57
2023-05-05T06:40:49.401Z,5.10
2023-05-05T06:43:16.734Z,5.68
2023-05-05T06:45:43.940Z,5.35
2023-05-05T06:48:10.636Z,5.50
2023-05-05T06:50:37.046Z,5.53
2023-05-05T06:53:03.375Z,5.90
2023-05-05T06:55:29.730Z,5.78
2023-05-05T06:57:56.446Z,6.28
2023-05-05T07:00:23.094Z,5.95
2023-05-05T07:02:49.811Z,5.90
2023-05-05T07:05:16.474Z,5.53
2023-05-05T07:07:56.116Z,5.35
2023-05-05T07:10:23.701Z,4.75
2023-05-05T07:12:51.501Z,4.18
2023-05-05T07:15:27.440Z,4.13
2023-05-05T07:17:55.592Z,4.75
2023-05-05T07:20:21.961Z,4.78
2023-05-05T07:22:48.300Z,4.00
2023-05-05T07:25:14.650Z,3.97
2023-05-05T07:27:41.117Z,3.63
2023-05-05T07:30:13.093Z,4.03
2023-05-05T07:32:41.187Z,4.30
2023-05-05T07:35:07.872Z,2.42
2023-05-05T07:37:34.304Z,2.85
2023-05-05T07:40:00.871Z,2.70
2023-05-05T07:42:27.194Z,3.20
2023-05-05T07:44:53.569Z,2.63
2023-05-05T07:47:20.173Z,3.55
2023-05-05T07:49:46.557Z,3.00
2023-05-05T07:55:28.532Z,2.88
2023-05-05T07:57:54.975Z,2.60
2023-05-05T08:00:21.651Z,2.40
2023-05-05T08:02:48.558Z,2.38
2023-05-05T08:05:15.051Z,2.70
2023-05-05T08:07:41.756Z,2.33
2023-05-05T08:10:10.455Z,2.10
2023-05-05T08:12:37.415Z,2.10
2023-05-05T08:15:05.145Z,2.20
2023-05-05T08:17:44.718Z,2.30
2023-05-05T08:20:11.672Z,2.50
2023-05-05T08:22:37.995Z,2.25
2023-05-05T08:25:04.897Z,2.22
2023-05-05T08:27:35.082Z,2.42
2023-05-05T08:30:04.624Z,2.20
2023-05-05T08:32:31.351Z,1.70
2023-05-05T08:34:57.868Z,1.08
2023-05-05T08:37:24.707Z,1.30
2023-05-05T08:39:51.053Z,1.55
2023-05-05T08:42:29.057Z,1.40
2023-05-05T08:45:02.340Z,1.35
2023-05-05T08:47:28.738Z,0.85
2023-05-05T08:49:56.527Z,1.30
2023-05-05T08:52:23.959Z,1.20
2023-05-05T08:54:54.990Z,1.60
2023-05-05T08:57:28.251Z,1.17
2023-05-05T08:59:56.787Z,1.13
2023-05-05T09:02:24.305Z,1.33
2023-05-05T09:04:52.188Z,1.00
2023-05-05T09:07:18.743Z,0.93
2023-05-05T09:09:46.295Z,1.30
2023-05-05T09:12:12.710Z,0.95
2023-05-05T09:14:39.023Z,1.13
2023-05-05T09:17:05.402Z,1.30
2023-05-05T09:19:31.775Z,1.20
2023-05-05T09:21:58.142Z,0.93
2023-05-05T09:24:24.530Z,1.10
2023-05-05T09:26:50.955Z,1.40
2023-05-05T09:29:21.867Z,1.48
2023-05-05T09:32:05.524Z,1.00
2023-05-05T09:34:34.151Z,1.08
2023-05-05T09:37:00.610Z,2.55
2023-05-05T09:39:27.321Z,3.33
2023-05-05T09:41:53.637Z,2.67
2023-05-05T09:44:36.978Z,2.97
2023-05-05T09:47:07.236Z,4.25
2023-05-05T09:49:39.113Z,3.70
2023-05-05T09:52:15.519Z,3.63
2023-05-05T09:54:43.006Z,3.97
2023-05-05T09:57:25.737Z,3.47
2023-05-05T10:00:00.048Z,3.35
2023-05-05T10:02:35.348Z,2.50
2023-05-05T10:05:07.011Z,2.58
2023-05-05T10:07:34.977Z,2.70
2023-05-05T10:10:03.201Z,2.47
2023-05-05T10:12:31.195Z,3.20
2023-05-05T10:15:00.979Z,3.00
2023-05-05T10:17:30.893Z,2.67
2023-05-05T10:19:57.567Z,1.80
2023-05-05T10:22:26.062Z,0.80
2023-05-05T10:25:04.380Z,0.70
2023-05-05T10:27:38.799Z,0.70
2023-05-05T10:30:06.937Z,0.40
2023-05-05T10:35:22.496Z,0.80
2023-05-05T10:37:49.130Z,0.70
2023-05-05T10:40:17.551Z,0.70
2023-05-05T10:42:44.311Z,0.50
2023-05-05T10:45:10.734Z,0.75
2023-05-05T10:47:40.127Z,0.70
2023-05-05T10:50:21.500Z,0.95
2023-05-05T10:53:03.237Z,1.60
2023-05-05T10:55:35.754Z,1.00
2023-05-05T10:58:02.110Z,0.90
2023-05-05T11:00:40.938Z,1.03
2023-05-05T11:03:20.773Z,1.88
2023-05-05T11:06:08.586Z,1.17
2023-05-05T11:08:39.569Z,1.50
2023-05-05T11:11:06.744Z,1.45
2023-05-05T11:13:33.178Z,1.30
2023-05-05T11:16:01.914Z,1.23
2023-05-05T11:18:44.484Z,1.55
2023-05-05T11:21:17.729Z,1.10
2023-05-05T11:23:51.777Z,1.40
2023-05-05T11:26:53.223Z,1.70
2023-05-05T11:29:19.597Z,1.48
2023-05-05T11:31:47.770Z,2.50
2023-05-05T11:34:27.334Z,1.92
2023-05-05T11:37:00.193Z,2.22
2023-05-05T11:39:52.135Z,2.13
2023-05-05T11:42:26.638Z,1.92
2023-05-05T11:44:54.471Z,1.73
2023-05-05T11:47:20.725Z,1.90
2023-05-05T11:49:47.264Z,2.15
2023-05-05T11:52:15.004Z,2.33
2023-05-05T11:54:48.079Z,1.95
2023-05-05T11:57:17.174Z,1.75
2023-05-05T11:59:58.529Z,1.55
2023-05-05T12:02:27.345Z,2.65
2023-05-05T12:04:54.451Z,1.70
2023-05-05T12:07:22.842Z,1.70
2023-05-05T12:09:49.736Z,2.13
2023-05-05T12:12:16.682Z,1.63
2023-05-05T12:14:47.336Z,1.88
2023-05-05T12:17:14.024Z,1.60
2023-05-05T12:19:51.628Z,1.75
2023-05-05T12:22:26.325Z,1.55
2023-05-05T12:25:01.140Z,2.13
2023-05-05T12:27:28.497Z,1.88
2023-05-05T12:29:56.062Z,1.53
2023-05-05T12:32:24.828Z,2.47
2023-05-05T12:34:54.374Z,1.95
2023-05-05T12:37:22.132Z,1.55
2023-05-05T12:39:49.365Z,2.05
2023-05-05T12:42:16.321Z,1.80
2023-05-05T12:44:44.200Z,2.20
2023-05-05T12:47:14.275Z,2.33
2023-05-05T12:49:50.719Z,2.00
2023-05-05T12:52:17.553Z,2.30
2023-05-05T12:54:55.169Z,2.37
2023-05-05T12:57:22.263Z,2.50
2023-05-05T12:59:49.291Z,2.40
2023-05-05T13:02:16.545Z,1.90
2023-05-05T13:04:51.569Z,2.05
2023-05-05T13:07:19.722Z,2.07
2023-05-05T13:09:48.039Z,2.47
2023-05-05T13:12:17.812Z,2.05
2023-05-05T13:14:45.325Z,2.95
2023-05-05T13:17:12.837Z,2.03
2023-05-05T13:19:45.967Z,2.17
2023-05-05T13:22:13.255Z,1.77
2023-05-05T13:24:50.631Z,2.30
2023-05-05T13:27:18.510Z,2.05
2023-05-05T13:29:44.848Z,1.85
2023-05-05T13:32:11.404Z,1.90
2023-05-05T13:34:39.090Z,2.45
2023-05-05T13:37:05.926Z,1.60
2023-05-05T13:39:32.258Z,2.30
2023-05-05T13:41:58.699Z,1.52
2023-05-05T13:44:25.124Z,2.37
2023-05-05T13:46:51.513Z,1.80
2023-05-05T13:49:18.016Z,1.58
2023-05-05T13:51:45.258Z,1.38
2023-05-05T13:54:11.592Z,1.40
2023-05-05T13:56:38.146Z,0.77
2023-05-05T13:59:04.525Z,1.10
2023-05-05T14:01:31.088Z,0.98
2023-05-05T14:03:58.058Z,0.95
2023-05-05T14:06:25.937Z,0.63
2023-05-05T14:08:52.438Z,0.57
2023-05-05T14:11:20.948Z,0.50
2023-05-05T14:13:47.961Z,0.60
2023-05-05T14:16:14.575Z,0.40
2023-05-05T14:18:41.153Z,0.52
2023-05-05T14:21:07.508Z,0.73
2023-05-05T14:23:33.974Z,0.60
2023-05-05T14:26:00.872Z,0.63
2023-05-05T14:28:27.394Z,0.50
2023-05-05T14:30:53.735Z,0.40
2023-05-05T14:33:20.288Z,0.77
2023-05-05T14:35:46.626Z,0.45
2023-05-05T14:38:13.041Z,0.57
2023-05-05T14:40:39.481Z,0.40
2023-05-05T14:43:05.828Z,0.70
2023-05-05T14:45:32.357Z,0.60
2023-05-05T14:47:58.844Z,0.80
2023-05-05T14:50:25.259Z,0.63
2023-05-05T14:52:51.568Z,0.75
2023-05-05T14:55:18.011Z,0.68
2023-05-05T14:57:44.372Z,0.67
2023-05-05T15:00:11.172Z,0.70
2023-05-05T15:02:37.706Z,0.80
2023-05-05T15:05:04.438Z,0.70
2023-05-05T15:07:30.878Z,1.00
2023-05-05T15:09:57.289Z,0.70
2023-05-05T15:12:24.228Z,0.90
2023-05-05T15:14:50.626Z,0.75
2023-05-05T15:17:16.984Z,1.00
2023-05-05T15:19:43.324Z,0.60
2023-05-05T15:22:09.742Z,0.70
2023-05-05T15:24:37.179Z,0.80
2023-05-05T15:27:03.711Z,1.00
2023-05-05T15:29:30.081Z,0.50
2023-05-05T15:31:56.518Z,0.40
2023-05-05T15:34:23.241Z,0.60
2023-05-05T15:36:49.653Z,0.60
2023-05-05T15:39:16.030Z,0.65
2023-05-05T15:41:42.337Z,0.52
2023-05-05T15:44:11.908Z,0.35
2023-05-05T15:46:39.080Z,0.30
2023-05-05T15:49:05.532Z,0.40
2023-05-05T15:51:32.213Z,0.40
2023-05-05T15:53:59.637Z,0.50
2023-05-05T15:56:27.325Z,0.57
2023-05-05T15:58:54.112Z,0.70
2023-05-05T16:01:20.934Z,0.60
2023-05-05T16:03:47.329Z,1.10
2023-05-05T16:06:13.845Z,0.65
2023-05-05T16:08:40.299Z,0.50
2023-05-05T16:11:06.748Z,0.50
2023-05-05T16:13:33.056Z,0.65
2023-05-05T16:15:59.399Z,0.70
2023-05-05T16:18:25.752Z,0.75
2023-05-05T16:20:52.127Z,0.88
2023-05-05T16:23:18.477Z,0.30
2023-05-05T16:25:44.784Z,0.40
2023-05-05T16:28:11.115Z,0.50
2023-05-05T16:30:39.802Z,0.30
2023-05-05T16:33:06.695Z,0.50
2023-05-05T16:35:33.148Z,0.40
2023-05-05T16:37:59.537Z,0.50
2023-05-05T16:40:25.837Z,0.40
2023-05-05T16:42:52.157Z,0.47
2023-05-05T16:45:18.524Z,0.47
2023-05-05T16:47:44.906Z,0.30
2023-05-05T16:50:11.316Z,0.20
2023-05-05T16:52:37.649Z,0.22
2023-05-05T16:55:04.779Z,0.20
2023-05-05T16:57:31.639Z,0.30
2023-05-05T16:59:58.091Z,0.30
2023-05-05T17:02:24.548Z,0.38
2023-05-05T17:04:50.962Z,0.20
2023-05-05T17:07:19.663Z,0.20
2023-05-05T17:09:45.979Z,0.30
2023-05-05T17:12:12.296Z,0.30
2023-05-05T17:14:39.496Z,0.30
2023-05-05T17:17:06.203Z,0.30
2023-05-05T17:19:32.557Z,0.30
2023-05-05T17:21:58.920Z,0.30
2023-05-05T17:24:25.770Z,0.30
2023-05-05T17:26:52.149Z,0.30
2023-05-05T17:29:23.409Z,0.32
2023-05-05T17:31:50.581Z,0.50
2023-05-05T17:34:17.003Z,0.40
2023-05-05T17:36:43.366Z,0.47
2023-05-05T17:39:11.260Z,0.70
2023-05-05T17:41:37.566Z,0.40
2023-05-05T17:44:04.050Z,0.55
2023-05-05T17:46:30.350Z,0.40
2023-05-05T17:48:56.760Z,0.30
2023-05-05T17:51:23.156Z,0.30
2023-05-05T17:53:49.461Z,0.40
2023-05-05T17:56:16.470Z,0.50
2023-05-05T17:58:42.799Z,0.45
2023-05-05T18:01:13.299Z,0.50
2023-05-05T18:03:40.940Z,0.60
2023-05-05T18:06:07.673Z,0.40
2023-05-05T18:08:33.990Z,0.50
2023-05-05T18:11:00.297Z,0.63
2023-05-05T18:13:26.685Z,0.50
2023-05-05T18:15:53.046Z,0.57
2023-05-05T18:18:19.403Z,0.60
2023-05-05T18:20:45.767Z,0.45
2023-05-05T18:23:12.738Z,0.38
2023-05-05T18:25:39.283Z,0.63
2023-05-05T18:28:05.646Z,0.43
2023-05-05T18:30:32.836Z,0.70
2023-05-05T18:32:59.329Z,0.55
2023-05-05T18:35:25.988Z,0.50
2023-05-05T18:37:52.372Z,0.60
2023-05-05T18:40:18.754Z,0.57
2023-05-05T18:42:45.185Z,0.40
2023-05-05T18:45:11.795Z,0.40
2023-05-05T18:47:41.396Z,0.47
2023-05-05T18:50:09.756Z,0.50
2023-05-05T18:52:36.132Z,0.70
2023-05-05T18:55:02.538Z,0.75
2023-05-05T18:57:29.028Z,0.70
2023-05-05T18:59:55.373Z,0.80
2023-05-05T19:02:21.803Z,0.67
2023-05-05T19:04:48.300Z,0.77
2023-05-05T19:07:27.575Z,0.65
2023-05-05T19:10:00.669Z,1.00
2023-05-05T19:12:26.992Z,0.80
2023-05-05T19:14:53.297Z,0.87
2023-05-05T19:17:19.900Z,0.80
2023-05-05T19:19:46.219Z,0.93
2023-05-05T19:22:12.606Z,0.70
2023-05-05T19:24:38.947Z,0.90
2023-05-05T19:27:05.417Z,0.67
2023-05-05T19:29:31.982Z,0.63
2023-05-05T19:31:58.400Z,0.60
2023-05-05T19:34:24.780Z,0.50
2023-05-05T19:36:51.250Z,0.50
2023-05-05T19:39:17.613Z,0.30
2023-05-05T19:41:44.038Z,0.35
2023-05-05T19:44:10.624Z,0.60
2023-05-05T19:46:36.984Z,0.50
2023-05-05T19:49:03.644Z,0.40
2023-05-05T19:51:29.961Z,0.60
2023-05-05T19:53:56.621Z,0.68
2023-05-05T19:56:23.821Z,1.13
2023-05-05T19:58:53.493Z,0.90
2023-05-05T20:01:19.846Z,1.00
2023-05-05T20:03:46.589Z,1.00
2023-05-05T20:06:13.008Z,0.98
2023-05-05T20:08:39.378Z,0.80
2023-05-05T20:11:05.699Z,0.85
2023-05-05T20:13:34.170Z,1.08
2023-05-05T20:16:00.889Z,1.10
2023-05-05T20:18:27.238Z,0.90
2023-05-05T20:20:53.591Z,0.90
2023-05-05T20:23:19.920Z,0.60
2023-05-05T20:25:46.245Z,1.20
2023-05-05T20:28:12.575Z,0.70
2023-05-05T20:30:38.937Z,1.17
2023-05-05T20:33:05.473Z,0.60
2023-05-05T20:35:31.878Z,0.40
2023-05-05T20:37:58.225Z,0.38
2023-05-05T20:40:25.384Z,0.20
2023-05-05T20:42:51.756Z,0.88
2023-05-05T20:45:18.510Z,0.70
2023-05-05T20:47:44.964Z,0.82
2023-05-05T20:50:11.733Z,0.50
2023-05-05T20:52:38.272Z,0.40
2023-05-05T20:55:05.326Z,0.40
2023-05-05T20:57:31.738Z,0.30
2023-05-05T20:59:58.152Z,0.47
2023-05-05T21:02:24.586Z,0.50
2023-05-05T21:04:50.948Z,0.20
2023-05-05T21:07:17.296Z,0.50
2023-05-05T21:09:46.649Z,1.00
2023-05-05T21:12:12.968Z,1.33
2023-05-05T21:14:44.060Z,0.80
2023-05-05T21:17:10.522Z,0.97
2023-05-05T21:19:36.825Z,0.10
2023-05-05T21:22:03.252Z,0.25
2023-05-05T21:24:29.597Z,0.32
2023-05-05T21:26:56.262Z,1.55
2023-05-05T21:29:24.546Z,0.53
2023-05-05T21:31:50.918Z,0.70
2023-05-05T21:34:18.224Z,0.85
2023-05-05T21:36:44.580Z,1.13
2023-05-05T21:39:10.963Z,1.00
2023-05-05T21:41:37.284Z,0.77
2023-05-05T21:44:03.718Z,1.42
2023-05-05T21:46:30.102Z,1.63
2023-05-05T21:48:56.598Z,0.60
2023-05-05T21:51:23.515Z,0.55
2023-05-05T21:53:49.865Z,0.43
2023-05-05T21:56:16.338Z,0.35
2023-05-05T21:58:42.676Z,0.40
2023-05-05T22:01:09.140Z,0.50
2023-05-05T22:03:35.716Z,0.82
2023-05-05T22:06:02.213Z,0.57
2023-05-05T22:08:28.544Z,0.80
2023-05-05T22:10:54.858Z,0.68
2023-05-05T22:13:21.242Z,0.30
2023-05-05T22:15:47.798Z,0.50
2023-05-05T22:18:14.863Z,0.40
2023-05-05T22:20:41.372Z,0.30
2023-05-05T22:23:07.872Z,0.60
2023-05-05T22:25:35.158Z,0.50
2023-05-05T22:28:01.561Z,0.70
2023-05-05T22:30:27.932Z,0.57
2023-05-05T22:32:54.891Z,1.27
2023-05-05T22:35:21.321Z,1.20
2023-05-05T22:37:47.727Z,0.88
2023-05-05T22:40:14.237Z,0.50
2023-05-05T22:42:40.672Z,0.60
2023-05-05T22:45:08.457Z,1.10
2023-05-05T22:47:35.173Z,1.40
2023-05-05T22:50:01.702Z,0.90
2023-05-05T22:52:28.869Z,0.77
2023-05-05T22:54:55.875Z,1.20
2023-05-05T22:57:22.216Z,0.30
2023-05-05T22:59:48.553Z,0.88
2023-05-05T23:02:14.877Z,0.50
2023-05-05T23:04:43.470Z,0.93
2023-05-05T23:07:10.908Z,0.90
2023-05-05T23:09:37.239Z,0.73
2023-05-05T23:12:03.924Z,0.75
2023-05-05T23:14:30.321Z,0.85
2023-05-05T23:16:56.691Z,0.68
2023-05-05T23:19:24.081Z,0.63
2023-05-05T23:21:53.556Z,1.17
2023-05-05T23:24:20.595Z,0.98
2023-05-05T23:26:46.965Z,0.82
2023-05-05T23:29:13.280Z,1.20
2023-05-05T23:31:39.603Z,1.00
2023-05-05T23:34:06.360Z,0.70
2023-05-05T23:36:32.742Z,0.75
2023-05-05T23:38:59.146Z,0.50
2023-05-05T23:41:25.481Z,0.60
2023-05-05T23:43:51.791Z,0.90
2023-05-05T23:46:18.213Z,1.15
2023-05-05T23:48:44.573Z,0.80
2023-05-05T23:51:11.027Z,1.02
2023-05-05T23:53:37.349Z,0.73
2023-05-05T23:56:03.858Z,1.10
2023-05-05T23:58:30.193Z,0.85
